createdAt,value
2022-07-30T00:02:17.348Z,60.57
2022-07-30T00:05:01.936Z,60.35
2022-07-30T00:07:46.717Z,59.85
2022-07-30T00:10:31.398Z,60.28
2022-07-30T00:13:16.266Z,60.02
2022-07-30T00:16:00.970Z,60.41
2022-07-30T00:18:45.828Z,59.44
2022-07-30T00:21:36.137Z,58.86
2022-07-30T00:24:21.744Z,59.00
2022-07-30T00:27:06.602Z,58.75
2022-07-30T00:29:51.367Z,58.69
2022-07-30T00:32:36.154Z,58.46
2022-07-30T00:35:20.817Z,58.16
2022-07-30T00:38:05.442Z,58.80
2022-07-30T00:40:50.257Z,57.75
2022-07-30T00:43:34.969Z,58.41
2022-07-30T00:46:19.697Z,58.86
2022-07-30T00:49:04.357Z,57.15
2022-07-30T00:51:49.716Z,57.10
2022-07-30T00:54:34.480Z,57.72
2022-07-30T00:57:19.247Z,58.71
2022-07-30T01:00:04.112Z,57.95
2022-07-30T01:02:49.131Z,57.50
2022-07-30T01:05:33.896Z,57.63
2022-07-30T01:08:18.784Z,57.44
2022-07-30T01:11:03.539Z,57.06
2022-07-30T01:13:48.185Z,56.79
2022-07-30T01:16:33.082Z,56.59
2022-07-30T01:19:18.264Z,56.38
2022-07-30T01:22:02.976Z,56.45
2022-07-30T01:24:47.649Z,56.81
2022-07-30T01:27:32.450Z,56.76
2022-07-30T01:30:17.111Z,56.53
2022-07-30T01:33:02.450Z,56.02
2022-07-30T01:35:47.283Z,55.56
2022-07-30T01:38:35.158Z,56.25
2022-07-30T01:41:20.380Z,56.12
2022-07-30T01:44:05.061Z,55.86
2022-07-30T01:46:49.932Z,55.64
2022-07-30T01:49:34.695Z,55.59
2022-07-30T01:52:19.425Z,55.32
2022-07-30T01:55:04.243Z,55.40
2022-07-30T01:57:59.646Z,56.25
2022-07-30T02:00:44.342Z,55.79
2022-07-30T02:03:29.075Z,56.37
2022-07-30T02:06:13.730Z,56.15
2022-07-30T02:08:58.499Z,56.32
2022-07-30T02:11:43.260Z,57.45
2022-07-30T02:14:28.064Z,57.88
2022-07-30T02:17:19.146Z,58.06
2022-07-30T02:20:09.571Z,57.56
2022-07-30T02:22:54.956Z,58.14
2022-07-30T02:25:39.532Z,58.26
2022-07-30T02:28:24.425Z,59.57
2022-07-30T02:31:16.941Z,59.60
2022-07-30T02:34:02.527Z,57.68
2022-07-30T02:36:47.420Z,57.84
2022-07-30T02:39:32.112Z,57.20
2022-07-30T02:42:16.898Z,57.33
2022-07-30T02:45:06.419Z,56.93
2022-07-30T02:47:51.032Z,56.51
2022-07-30T02:50:35.817Z,56.13
2022-07-30T02:53:20.526Z,55.96
2022-07-30T02:56:05.239Z,54.36
2022-07-30T02:58:49.938Z,54.14
2022-07-30T03:01:35.367Z,53.43
2022-07-30T03:04:20.625Z,52.61
2022-07-30T03:07:08.397Z,53.66
2022-07-30T03:09:53.699Z,54.01
2022-07-30T03:12:38.474Z,54.63
2022-07-30T03:15:23.445Z,54.89
2022-07-30T03:18:08.445Z,54.89
2022-07-30T03:20:53.153Z,54.25
2022-07-30T03:23:38.056Z,55.11
2022-07-30T03:26:22.767Z,56.20
2022-07-30T03:29:07.608Z,57.31
2022-07-30T03:31:54.962Z,56.76
2022-07-30T03:34:40.217Z,56.65
2022-07-30T03:37:26.113Z,56.24
2022-07-30T03:40:10.911Z,56.32
2022-07-30T03:42:55.715Z,57.04
2022-07-30T03:45:40.532Z,56.87
2022-07-30T03:48:25.362Z,56.67
2022-07-30T03:51:10.275Z,57.50
2022-07-30T03:53:54.962Z,57.68
2022-07-30T03:56:39.803Z,56.77
2022-07-30T03:59:24.593Z,56.67
2022-07-30T04:02:09.409Z,56.42
2022-07-30T04:04:54.646Z,56.97
2022-07-30T04:07:41.382Z,57.01
2022-07-30T04:10:30.379Z,56.64
2022-07-30T04:13:15.085Z,56.58
2022-07-30T04:16:38.115Z,56.28
2022-07-30T04:19:04.861Z,56.36
2022-07-30T04:21:49.740Z,55.04
2022-07-30T04:24:34.502Z,54.56
2022-07-30T04:27:19.385Z,54.74
2022-07-30T04:30:04.176Z,54.68
2022-07-30T04:32:48.812Z,54.34
2022-07-30T04:35:50.952Z,54.46
2022-07-30T04:38:37.225Z,54.97
2022-07-30T04:41:21.919Z,55.02
2022-07-30T04:44:06.663Z,54.98
2022-07-30T04:46:51.353Z,54.52
2022-07-30T04:49:36.455Z,54.36
2022-07-30T04:52:21.120Z,53.97
2022-07-30T04:55:06.090Z,54.34
2022-07-30T04:57:50.787Z,54.26
2022-07-30T05:00:40.506Z,54.18
2022-07-30T05:03:26.036Z,53.73
2022-07-30T05:06:10.711Z,53.24
2022-07-30T05:08:55.997Z,52.50
2022-07-30T05:11:40.791Z,51.98
2022-07-30T05:14:25.541Z,52.94
2022-07-30T05:17:10.170Z,52.63
2022-07-30T05:19:55.064Z,51.91
2022-07-30T05:22:39.799Z,51.46
2022-07-30T05:25:28.002Z,50.47
2022-07-30T05:28:12.765Z,50.35
2022-07-30T05:30:57.794Z,49.08
2022-07-30T05:33:42.934Z,45.36
2022-07-30T05:36:28.273Z,41.73
2022-07-30T05:39:12.895Z,41.40
2022-07-30T05:41:57.726Z,41.41
2022-07-30T05:44:42.447Z,44.22
2022-07-30T05:47:27.320Z,44.61
2022-07-30T05:50:12.137Z,46.45
2022-07-30T05:52:56.903Z,47.34
2022-07-30T05:55:41.930Z,46.57
2022-07-30T05:58:26.613Z,47.04
2022-07-30T06:01:12.111Z,45.76
2022-07-30T06:03:57.243Z,37.87
2022-07-30T06:06:42.058Z,32.23
2022-07-30T06:09:36.169Z,28.66
2022-07-30T06:12:21.413Z,26.58
2022-07-30T06:15:06.136Z,29.66
2022-07-30T06:17:51.138Z,34.12
2022-07-30T06:20:44.424Z,34.66
2022-07-30T06:23:29.171Z,29.81
2022-07-30T06:26:13.917Z,31.36
2022-07-30T06:28:58.473Z,34.56
2022-07-30T06:31:43.293Z,30.36
2022-07-30T06:34:27.996Z,27.26
2022-07-30T06:37:12.846Z,25.81
2022-07-30T06:39:58.729Z,22.72
2022-07-30T06:42:43.840Z,20.48
2022-07-30T06:45:28.554Z,20.57
2022-07-30T06:48:13.323Z,18.86
2022-07-30T06:50:58.017Z,19.08
2022-07-30T06:53:43.035Z,18.78
2022-07-30T06:56:28.199Z,19.51
2022-07-30T06:59:12.958Z,20.09
2022-07-30T07:01:57.721Z,20.87
2022-07-30T07:04:43.019Z,22.40
2022-07-30T07:07:41.217Z,21.49
2022-07-30T07:10:27.022Z,22.80
2022-07-30T07:13:11.773Z,23.22
2022-07-30T07:15:56.704Z,22.53
2022-07-30T07:18:41.436Z,20.76
2022-07-30T07:21:26.248Z,20.57
2022-07-30T07:24:10.989Z,19.92
2022-07-30T07:26:55.768Z,18.86
2022-07-30T07:29:40.600Z,17.28
2022-07-30T07:32:45.445Z,16.50
2022-07-30T07:35:30.239Z,17.12
2022-07-30T07:38:14.816Z,18.85
2022-07-30T07:40:59.552Z,20.40
2022-07-30T07:43:44.154Z,21.83
2022-07-30T07:46:33.601Z,22.05
2022-07-30T07:49:19.429Z,25.22
2022-07-30T07:52:04.602Z,27.71
2022-07-30T07:54:49.335Z,29.54
2022-07-30T07:57:35.247Z,30.35
2022-07-30T08:00:21.014Z,31.67
2022-07-30T08:03:05.825Z,33.48
2022-07-30T08:05:53.950Z,33.58
2022-07-30T08:08:50.861Z,33.86
2022-07-30T08:11:35.658Z,35.16
2022-07-30T08:14:20.377Z,35.53
2022-07-30T08:17:05.650Z,34.54
2022-07-30T08:19:51.032Z,35.18
2022-07-30T08:22:35.880Z,33.97
2022-07-30T08:25:22.154Z,32.86
2022-07-30T08:28:36.291Z,35.79
2022-07-30T08:31:14.540Z,32.25
2022-07-30T08:33:59.195Z,34.53
2022-07-30T08:36:43.915Z,33.71
2022-07-30T08:39:28.711Z,34.05
2022-07-30T08:42:13.543Z,32.88
2022-07-30T08:44:58.300Z,33.96
2022-07-30T08:47:43.067Z,32.49
2022-07-30T08:50:27.938Z,33.44
2022-07-30T08:53:12.629Z,34.21
2022-07-30T08:55:58.778Z,35.34
2022-07-30T08:58:43.952Z,36.22
2022-07-30T09:01:28.636Z,36.36
2022-07-30T09:04:13.447Z,35.49
2022-07-30T09:06:58.260Z,37.15
2022-07-30T09:09:42.902Z,38.87
2022-07-30T09:12:27.698Z,40.12
2022-07-30T09:15:12.487Z,40.30
2022-07-30T09:17:57.228Z,41.36
2022-07-30T09:20:42.050Z,41.11
2022-07-30T09:23:26.720Z,35.80
2022-07-30T09:26:11.607Z,40.67
2022-07-30T09:28:56.298Z,39.60
2022-07-30T09:31:43.543Z,38.43
2022-07-30T09:34:28.824Z,39.74
2022-07-30T09:37:13.616Z,39.57
2022-07-30T09:39:59.142Z,38.80
2022-07-30T09:42:44.535Z,37.26
2022-07-30T09:45:34.943Z,36.71
2022-07-30T09:48:19.904Z,36.58
2022-07-30T09:51:04.630Z,35.91
2022-07-30T09:53:49.276Z,35.63
2022-07-30T09:56:34.051Z,34.78
2022-07-30T09:59:19.770Z,33.90
2022-07-30T10:02:09.945Z,32.42
2022-07-30T10:04:55.380Z,32.07
2022-07-30T10:07:42.918Z,29.97
2022-07-30T10:10:28.927Z,29.21
2022-07-30T10:13:20.530Z,29.72
2022-07-30T10:16:05.603Z,29.51
2022-07-30T10:18:51.471Z,30.83
2022-07-30T10:21:36.840Z,29.48
2022-07-30T10:24:27.643Z,28.84
2022-07-30T10:27:12.930Z,28.61
2022-07-30T10:29:57.981Z,29.73
2022-07-30T10:32:42.714Z,29.66
2022-07-30T10:35:34.819Z,28.28
2022-07-30T10:38:23.408Z,29.34
2022-07-30T10:41:08.146Z,26.69
2022-07-30T10:43:52.807Z,25.72
2022-07-30T10:46:37.848Z,28.29
2022-07-30T10:49:22.558Z,27.94
2022-07-30T10:52:07.255Z,26.76
2022-07-30T10:54:51.934Z,27.69
2022-07-30T10:57:41.544Z,25.97
2022-07-30T11:00:29.713Z,26.32
2022-07-30T11:03:16.001Z,28.28
2022-07-30T11:06:00.944Z,26.20
2022-07-30T11:08:48.052Z,27.21
2022-07-30T11:12:01.181Z,26.50
2022-07-30T11:14:38.271Z,24.93
2022-07-30T11:17:23.103Z,23.87
2022-07-30T11:20:11.832Z,25.69
2022-07-30T11:22:56.994Z,21.96
2022-07-30T11:25:51.275Z,24.29
2022-07-30T11:28:39.101Z,22.93
2022-07-30T11:31:24.132Z,22.67
2022-07-30T11:34:25.658Z,23.20
2022-07-30T11:37:19.202Z,21.44
2022-07-30T11:40:07.557Z,21.84
2022-07-30T11:42:52.373Z,22.08
2022-07-30T11:45:36.986Z,21.71
2022-07-30T11:48:21.801Z,23.88
2022-07-30T11:51:06.468Z,21.40
2022-07-30T11:53:51.232Z,21.81
2022-07-30T11:56:36.437Z,22.43
2022-07-30T11:59:21.120Z,21.36
2022-07-30T12:02:06.145Z,20.99
2022-07-30T12:04:51.118Z,21.75
2022-07-30T12:07:35.902Z,20.35
2022-07-30T12:10:26.781Z,22.48
2022-07-30T12:13:12.326Z,23.75
2022-07-30T12:15:57.214Z,23.52
2022-07-30T12:18:41.944Z,23.38
2022-07-30T12:21:26.726Z,24.29
2022-07-30T12:24:11.372Z,23.61
2022-07-30T12:26:56.109Z,23.42
2022-07-30T12:29:40.899Z,22.36
2022-07-30T12:32:25.753Z,22.26
2022-07-30T12:35:10.520Z,22.06
2022-07-30T12:37:55.357Z,22.78
2022-07-30T12:40:40.218Z,23.25
2022-07-30T12:43:24.918Z,22.60
2022-07-30T12:46:13.178Z,22.47
2022-07-30T12:48:59.889Z,22.68
2022-07-30T12:51:58.406Z,21.69
2022-07-30T12:54:45.315Z,22.40
2022-07-30T12:57:30.097Z,21.59
2022-07-30T13:00:14.797Z,22.19
2022-07-30T13:02:59.500Z,22.10
2022-07-30T13:05:44.213Z,22.18
2022-07-30T13:08:29.042Z,22.92
2022-07-30T13:11:13.790Z,23.30
2022-07-30T13:13:58.621Z,22.45
2022-07-30T13:16:43.325Z,22.51
2022-07-30T13:19:28.135Z,22.79
2022-07-30T13:22:12.871Z,22.70
2022-07-30T13:24:57.742Z,21.72
2022-07-30T13:27:42.403Z,21.07
2022-07-30T13:30:27.169Z,22.66
2022-07-30T13:33:11.852Z,23.14
2022-07-30T13:35:56.600Z,21.69
2022-07-30T13:38:41.430Z,21.50
2022-07-30T13:41:26.201Z,21.89
2022-07-30T13:44:10.947Z,21.33
2022-07-30T13:46:58.780Z,23.55
2022-07-30T13:49:46.468Z,23.05
2022-07-30T13:52:37.395Z,23.81
2022-07-30T13:55:22.384Z,23.92
2022-07-30T13:58:07.200Z,25.33
2022-07-30T14:00:51.900Z,24.44
2022-07-30T14:03:36.699Z,24.30
2022-07-30T14:06:21.623Z,24.58
2022-07-30T14:09:07.533Z,24.90
2022-07-30T14:11:52.349Z,23.40
2022-07-30T14:14:37.037Z,23.94
2022-07-30T14:17:21.658Z,23.98
2022-07-30T14:20:06.454Z,23.44
2022-07-30T14:22:51.264Z,23.59
2022-07-30T14:25:35.957Z,23.79
2022-07-30T14:28:20.759Z,23.55
2022-07-30T14:31:05.438Z,23.02
2022-07-30T14:33:50.262Z,23.21
2022-07-30T14:36:35.024Z,23.55
2022-07-30T14:39:19.729Z,22.74
2022-07-30T14:42:04.434Z,22.87
2022-07-30T14:44:49.226Z,22.29
2022-07-30T14:47:34.078Z,22.87
2022-07-30T14:50:18.923Z,22.45
2022-07-30T14:53:04.429Z,22.39
2022-07-30T14:55:49.176Z,22.33
2022-07-30T14:58:34.031Z,23.68
2022-07-30T15:01:19.707Z,23.46
2022-07-30T15:04:05.028Z,22.77
2022-07-30T15:06:49.681Z,27.40
2022-07-30T15:09:34.496Z,23.56
2022-07-30T15:12:23.569Z,23.45
2022-07-30T15:15:12.369Z,23.32
2022-07-30T15:17:59.386Z,25.22
2022-07-30T15:20:44.278Z,22.38
2022-07-30T15:23:29.267Z,22.24
2022-07-30T15:26:14.451Z,23.45
2022-07-30T15:28:59.215Z,20.74
2022-07-30T15:31:43.896Z,21.83
2022-07-30T15:34:28.676Z,23.09
2022-07-30T15:37:13.425Z,21.95
2022-07-30T15:39:58.379Z,21.96
2022-07-30T15:42:43.000Z,22.43
2022-07-30T15:45:27.826Z,22.85
2022-07-30T15:48:12.489Z,24.20
2022-07-30T15:51:09.875Z,21.43
2022-07-30T15:53:54.600Z,22.47
2022-07-30T15:56:39.546Z,22.50
2022-07-30T15:59:24.207Z,23.31
2022-07-30T16:02:08.951Z,23.81
2022-07-30T16:04:53.714Z,22.59
2022-07-30T16:07:38.617Z,23.12
2022-07-30T16:10:23.472Z,23.32
2022-07-30T16:13:08.264Z,22.47
2022-07-30T16:15:52.983Z,23.79
2022-07-30T16:18:37.757Z,23.21
2022-07-30T16:21:22.528Z,23.86
2022-07-30T16:24:07.145Z,23.31
2022-07-30T16:26:51.939Z,22.99
2022-07-30T16:29:36.636Z,24.06
2022-07-30T16:32:21.497Z,24.07
2022-07-30T16:35:08.415Z,25.33
2022-07-30T16:37:56.442Z,24.15
2022-07-30T16:40:41.290Z,24.73
2022-07-30T16:43:25.985Z,26.33
2022-07-30T16:46:10.831Z,25.68
2022-07-30T16:48:55.620Z,24.15
2022-07-30T16:51:40.405Z,25.02
2022-07-30T16:54:25.345Z,25.33
2022-07-30T16:57:10.533Z,27.56
2022-07-30T16:59:56.074Z,25.94
2022-07-30T17:02:41.110Z,27.97
2022-07-30T17:05:25.835Z,25.12
2022-07-30T17:08:10.506Z,24.32
2022-07-30T17:10:55.331Z,25.21
2022-07-30T17:13:42.420Z,27.22
2022-07-30T17:16:27.502Z,26.61
2022-07-30T17:19:12.527Z,25.27
2022-07-30T17:21:57.273Z,26.10
2022-07-30T17:24:42.153Z,26.73
2022-07-30T17:27:26.793Z,27.92
2022-07-30T17:30:11.482Z,29.38
2022-07-30T17:32:56.245Z,28.93
2022-07-30T17:35:40.962Z,27.61
2022-07-30T17:38:25.812Z,26.64
2022-07-30T17:41:13.387Z,28.08
2022-07-30T17:43:59.022Z,27.29
2022-07-30T17:46:43.825Z,30.40
2022-07-30T17:49:28.640Z,30.09
2022-07-30T17:52:13.331Z,27.58
2022-07-30T17:54:58.197Z,30.29
2022-07-30T17:57:43.018Z,29.31
2022-07-30T18:00:27.764Z,27.90
2022-07-30T18:03:12.658Z,28.30
2022-07-30T18:05:57.339Z,27.81
2022-07-30T18:08:42.152Z,27.32
2022-07-30T18:11:26.899Z,27.70
2022-07-30T18:14:11.631Z,28.40
2022-07-30T18:16:56.478Z,28.04
2022-07-30T18:19:41.317Z,28.32
2022-07-30T18:22:29.862Z,28.61
2022-07-30T18:25:19.302Z,28.10
2022-07-30T18:28:04.403Z,28.07
2022-07-30T18:30:49.350Z,26.57
2022-07-30T18:33:34.169Z,28.10
2022-07-30T18:36:18.837Z,28.27
2022-07-30T18:39:03.364Z,27.91
2022-07-30T18:41:48.094Z,27.55
2022-07-30T18:44:32.788Z,27.53
2022-07-30T18:47:17.500Z,27.25
2022-07-30T18:50:02.326Z,27.17
2022-07-30T18:52:47.567Z,27.43
2022-07-30T18:55:32.388Z,27.46
2022-07-30T18:58:17.098Z,27.29
2022-07-30T19:01:01.909Z,27.74
2022-07-30T19:03:46.522Z,27.64
2022-07-30T19:06:31.253Z,27.90
2022-07-30T19:09:17.956Z,28.18
2022-07-30T19:12:03.491Z,28.02
2022-07-30T19:14:48.454Z,28.10
2022-07-30T19:17:45.421Z,27.02
2022-07-30T19:20:32.133Z,27.10
2022-07-30T19:23:16.934Z,27.12
2022-07-30T19:26:01.726Z,29.64
2022-07-30T19:28:46.373Z,27.98
2022-07-30T19:31:31.145Z,28.18
2022-07-30T19:34:15.848Z,27.88
2022-07-30T19:37:00.663Z,29.20
2022-07-30T19:40:05.614Z,30.68
2022-07-30T19:42:51.591Z,29.33
2022-07-30T19:45:47.510Z,29.86
2022-07-30T19:48:32.822Z,29.65
2022-07-30T19:51:21.076Z,29.67
2022-07-30T19:54:09.931Z,30.20
2022-07-30T19:56:54.766Z,31.60
2022-07-30T19:59:45.749Z,30.88
2022-07-30T20:02:44.543Z,31.11
2022-07-30T20:05:30.493Z,31.54
2022-07-30T20:08:15.586Z,30.69
2022-07-30T20:11:00.374Z,31.21
2022-07-30T20:13:46.272Z,31.71
2022-07-30T20:16:31.490Z,31.69
2022-07-30T20:19:16.699Z,32.33
2022-07-30T20:22:01.569Z,32.16
2022-07-30T20:24:46.235Z,33.05
2022-07-30T20:27:35.942Z,32.74
2022-07-30T20:30:25.310Z,32.82
2022-07-30T20:33:10.144Z,32.78
2022-07-30T20:35:54.819Z,32.63
2022-07-30T20:38:39.886Z,32.75
2022-07-30T20:41:25.054Z,33.02
2022-07-30T20:44:14.666Z,32.58
2022-07-30T20:47:08.578Z,33.02
2022-07-30T20:49:53.507Z,33.32
2022-07-30T20:52:39.388Z,33.32
2022-07-30T20:55:24.531Z,33.54
2022-07-30T20:58:16.519Z,33.70
2022-07-30T21:01:04.771Z,34.20
2022-07-30T21:03:50.033Z,34.08
2022-07-30T21:06:34.939Z,33.90
2022-07-30T21:09:20.133Z,34.24
2022-07-30T21:12:05.844Z,34.56
2022-07-30T21:14:51.651Z,34.81
2022-07-30T21:17:36.239Z,34.07
2022-07-30T21:20:27.332Z,34.46
2022-07-30T21:23:13.101Z,35.10
2022-07-30T21:26:01.307Z,35.15
2022-07-30T21:28:49.242Z,34.75
2022-07-30T21:31:35.078Z,34.98
2022-07-30T21:37:44.940Z,34.75
2022-07-30T21:40:29.820Z,35.68
2022-07-30T21:43:14.574Z,35.53
2022-07-30T21:46:08.091Z,35.45
2022-07-30T21:48:58.530Z,35.55
2022-07-30T21:52:00.164Z,35.45
2022-07-30T21:54:48.145Z,35.84
2022-07-30T21:57:34.611Z,35.84
2022-07-30T22:00:20.870Z,36.48
2022-07-30T22:06:12.493Z,36.43
2022-07-30T22:08:57.912Z,36.48
2022-07-30T22:11:45.361Z,36.53
2022-07-30T22:14:31.655Z,36.55
2022-07-30T22:17:23.942Z,36.42
2022-07-30T22:20:21.252Z,36.75
2022-07-30T22:23:06.701Z,36.77
2022-07-30T22:25:51.998Z,37.09
2022-07-30T22:28:45.107Z,37.37
2022-07-30T22:31:30.951Z,37.09
2022-07-30T22:34:24.407Z,37.22
2022-07-30T22:37:12.795Z,36.81
2022-07-30T22:39:58.513Z,37.12
2022-07-30T22:42:49.686Z,37.32
2022-07-30T22:45:47.409Z,37.01
2022-07-30T22:48:34.767Z,37.53
2022-07-30T22:51:20.452Z,37.34
2022-07-30T22:54:12.828Z,37.75
2022-07-30T22:56:58.063Z,37.28
2022-07-30T22:59:49.416Z,37.56
2022-07-30T23:02:43.721Z,37.59
2022-07-30T23:05:28.471Z,37.53
2022-07-30T23:08:14.237Z,37.28
2022-07-30T23:10:59.155Z,38.07
2022-07-30T23:12:27.492Z,34.70
2022-07-30T23:12:28.084Z,36.45
2022-07-30T23:13:44.448Z,37.73
2022-07-30T23:16:29.217Z,37.56
2022-07-30T23:19:21.852Z,38.26
2022-07-30T23:22:07.150Z,37.88
2022-07-30T23:24:51.833Z,38.61
2022-07-30T23:27:36.499Z,38.13
2022-07-30T23:30:21.322Z,37.59
2022-07-30T23:33:06.087Z,37.74
2022-07-30T23:35:51.350Z,38.06
2022-07-30T23:38:36.287Z,38.28
2022-07-30T23:41:30.402Z,38.05
2022-07-30T23:44:15.852Z,38.29
2022-07-30T23:47:01.035Z,38.62
2022-07-30T23:49:45.913Z,38.29
2022-07-30T23:52:30.609Z,38.65
2022-07-30T23:55:15.508Z,38.68
2022-07-30T23:58:00.234Z,38.97
